createdAt,value
2018-06-21T00:00:23.669Z,10.43
2018-06-21T00:02:51.806Z,11.53
2018-06-21T00:05:20.257Z,11.43
2018-06-21T00:07:48.425Z,11.13
2018-06-21T00:10:16.557Z,9.67
2018-06-21T00:12:44.710Z,10.60
2018-06-21T00:15:12.821Z,10.87
2018-06-21T00:17:41.433Z,10.70
2018-06-21T00:20:09.554Z,9.87
2018-06-21T00:22:38.005Z,11.00
2018-06-21T00:25:06.174Z,9.93
2018-06-21T00:27:34.647Z,10.13
2018-06-21T00:30:03.098Z,10.23
2018-06-21T00:32:31.566Z,10.03
2018-06-21T00:35:00.044Z,11.70
2018-06-21T00:37:28.365Z,10.03
2018-06-21T00:39:56.831Z,11.23
2018-06-21T00:42:25.165Z,10.77
2018-06-21T00:44:53.661Z,13.07
2018-06-21T00:47:22.341Z,12.17
2018-06-21T00:49:50.478Z,10.80
2018-06-21T00:52:19.264Z,12.10
2018-06-21T00:54:47.631Z,11.90
2018-06-21T00:57:15.772Z,11.20
2018-06-21T00:59:43.895Z,11.03
2018-06-21T01:02:12.598Z,12.30
2018-06-21T01:04:41.057Z,11.80
2018-06-21T01:07:09.518Z,13.10
2018-06-21T01:09:37.674Z,11.87
2018-06-21T01:12:06.077Z,12.83
2018-06-21T01:14:34.538Z,12.83
2018-06-21T01:17:03.087Z,11.73
2018-06-21T01:19:31.567Z,11.87
2018-06-21T01:22:00.042Z,11.10
2018-06-21T01:24:28.504Z,11.20
2018-06-21T01:26:56.965Z,10.30
2018-06-21T01:29:25.449Z,11.77
2018-06-21T01:31:53.589Z,11.10
2018-06-21T01:34:21.749Z,10.27
2018-06-21T01:36:50.233Z,11.50
2018-06-21T01:39:18.742Z,12.67
2018-06-21T01:41:46.857Z,10.90
2018-06-21T01:44:15.365Z,12.20
2018-06-21T01:46:43.493Z,10.67
2018-06-21T01:49:11.960Z,10.63
2018-06-21T01:51:40.098Z,11.43
2018-06-21T01:54:08.241Z,11.10
2018-06-21T01:56:36.365Z,11.03
2018-06-21T01:59:05.043Z,12.30
2018-06-21T02:01:33.173Z,12.40
2018-06-21T02:04:01.314Z,11.73
2018-06-21T02:06:29.451Z,11.40
2018-06-21T02:08:57.597Z,12.40
2018-06-21T02:11:25.739Z,11.17
2018-06-21T02:13:53.882Z,11.03
2018-06-21T02:16:22.033Z,13.23
2018-06-21T02:18:50.518Z,11.37
2018-06-21T02:21:18.662Z,12.40
2018-06-21T02:23:46.833Z,13.83
2018-06-21T02:26:14.974Z,13.10
2018-06-21T02:28:43.456Z,12.37
2018-06-21T02:31:11.590Z,12.97
2018-06-21T02:33:39.753Z,12.83
2018-06-21T02:36:07.902Z,12.10
2018-06-21T02:38:36.230Z,13.63
2018-06-21T02:41:04.897Z,13.00
2018-06-21T02:43:33.061Z,12.00
2018-06-21T02:46:01.193Z,13.07
2018-06-21T02:48:29.553Z,13.30
2018-06-21T02:50:57.662Z,12.97
2018-06-21T02:53:25.822Z,12.03
2018-06-21T02:55:54.498Z,11.77
2018-06-21T02:58:22.906Z,13.40
2018-06-21T03:00:51.133Z,11.77
2018-06-21T03:03:19.594Z,12.87
2018-06-21T03:05:48.084Z,12.27
2018-06-21T03:08:16.554Z,13.67
2018-06-21T03:10:45.079Z,12.90
2018-06-21T03:13:13.534Z,12.27
2018-06-21T03:15:42.038Z,12.33
2018-06-21T03:18:10.498Z,12.10
2018-06-21T03:20:38.642Z,13.73
2018-06-21T03:23:07.106Z,13.27
2018-06-21T03:25:35.577Z,13.17
2018-06-21T03:28:04.061Z,11.77
2018-06-21T03:30:32.210Z,12.30
2018-06-21T03:33:00.869Z,10.77
2018-06-21T03:35:29.012Z,10.80
2018-06-21T03:37:57.355Z,10.80
2018-06-21T03:40:25.513Z,10.73
2018-06-21T03:42:53.971Z,10.93
2018-06-21T03:45:22.090Z,9.20
2018-06-21T03:47:50.470Z,10.13
2018-06-21T03:50:18.969Z,9.80
2018-06-21T03:52:47.423Z,9.90
2018-06-21T03:55:15.594Z,9.00
2018-06-21T03:57:43.737Z,8.90
2018-06-21T04:00:12.210Z,9.53
2018-06-21T04:02:40.618Z,8.60
2018-06-21T04:05:09.124Z,9.13
2018-06-21T04:07:37.253Z,8.90
2018-06-21T04:10:05.430Z,8.40
2018-06-21T04:12:33.941Z,8.47
2018-06-21T04:15:02.094Z,8.80
2018-06-21T04:17:30.760Z,8.33
2018-06-21T04:19:59.721Z,8.70
2018-06-21T04:22:28.205Z,8.30
2018-06-21T04:24:56.650Z,7.90
2018-06-21T04:27:24.771Z,8.27
2018-06-21T04:29:53.237Z,7.33
2018-06-21T04:32:21.708Z,8.00
2018-06-21T04:34:50.017Z,7.57
2018-06-21T04:37:18.143Z,8.80
2018-06-21T04:39:47.046Z,8.00
2018-06-21T04:42:15.493Z,8.53
2018-06-21T04:44:43.666Z,8.80
2018-06-21T04:47:12.307Z,8.80
2018-06-21T04:49:40.770Z,9.37
2018-06-21T04:52:08.894Z,9.40
2018-06-21T04:54:37.025Z,9.23
2018-06-21T04:57:05.697Z,9.67
2018-06-21T04:59:34.009Z,9.00
2018-06-21T05:02:02.154Z,9.63
2018-06-21T05:04:30.585Z,9.97
2018-06-21T05:06:59.302Z,9.50
2018-06-21T05:09:27.669Z,9.70
2018-06-21T05:11:55.785Z,9.40
2018-06-21T05:14:23.941Z,10.80
2018-06-21T05:16:52.067Z,10.50
2018-06-21T05:19:20.201Z,11.80
2018-06-21T05:21:48.341Z,10.27
2018-06-21T05:24:16.459Z,10.57
2018-06-21T05:26:44.916Z,12.50
2018-06-21T05:29:13.502Z,11.67
2018-06-21T05:31:41.625Z,12.00
2018-06-21T05:34:09.750Z,13.33
2018-06-21T05:36:38.214Z,13.20
2018-06-21T05:39:08.857Z,13.30
2018-06-21T05:41:37.318Z,12.93
2018-06-21T05:44:05.661Z,14.50
2018-06-21T05:46:34.240Z,13.47
2018-06-21T05:49:02.569Z,15.60
2018-06-21T05:51:31.088Z,14.00
2018-06-21T05:53:59.214Z,13.30
2018-06-21T05:56:27.331Z,15.00
2018-06-21T05:58:55.996Z,13.73
2018-06-21T06:01:24.133Z,13.20
2018-06-21T06:03:52.757Z,11.10
2018-06-21T06:06:21.270Z,9.30
2018-06-21T06:08:49.664Z,7.90
2018-06-21T06:11:17.977Z,5.20
2018-06-21T06:13:46.103Z,5.23
2018-06-21T06:16:14.573Z,4.40
2018-06-21T06:18:43.041Z,4.60
2018-06-21T06:21:11.714Z,3.87
2018-06-21T06:23:40.074Z,4.67
2018-06-21T06:26:08.406Z,3.63
2018-06-21T06:28:36.870Z,3.80
2018-06-21T06:31:05.501Z,3.20
2018-06-21T06:33:33.833Z,3.40
2018-06-21T06:36:02.305Z,3.90
2018-06-21T06:38:30.761Z,3.90
2018-06-21T06:40:58.868Z,3.67
2018-06-21T06:43:27.331Z,3.90
2018-06-21T06:45:55.882Z,3.40
2018-06-21T06:48:24.081Z,2.83
2018-06-21T06:50:52.525Z,2.80
2018-06-21T06:53:20.987Z,3.00
2018-06-21T06:55:49.152Z,2.77
2018-06-21T06:58:17.294Z,3.00
2018-06-21T07:00:45.750Z,3.27
2018-06-21T07:03:13.868Z,3.10
2018-06-21T07:05:41.981Z,3.60
2018-06-21T07:08:10.172Z,3.50
2018-06-21T07:10:38.805Z,4.00
2018-06-21T07:13:07.366Z,3.30
2018-06-21T07:15:35.816Z,4.03
2018-06-21T07:18:04.286Z,4.07
2018-06-21T07:20:32.461Z,4.53
2018-06-21T07:23:01.049Z,4.10
2018-06-21T07:25:29.433Z,4.63
2018-06-21T07:27:57.562Z,4.80
2018-06-21T07:30:26.014Z,5.53
2018-06-21T07:32:54.557Z,5.90
2018-06-21T07:35:22.658Z,6.07
2018-06-21T07:37:51.098Z,6.10
2018-06-21T07:40:19.229Z,6.23
2018-06-21T07:42:47.355Z,6.57
2018-06-21T07:45:15.813Z,7.60
2018-06-21T07:47:43.946Z,7.10
2018-06-21T07:50:12.395Z,7.50
2018-06-21T07:52:40.514Z,7.00
2018-06-21T07:55:08.625Z,6.30
2018-06-21T07:57:36.757Z,5.80
2018-06-21T08:00:05.133Z,5.50
2018-06-21T08:02:33.273Z,5.60
2018-06-21T08:05:01.739Z,5.20
2018-06-21T08:07:30.058Z,4.90
2018-06-21T08:09:58.190Z,6.97
2018-06-21T08:12:26.316Z,5.70
2018-06-21T08:14:54.693Z,5.30
2018-06-21T08:17:23.134Z,4.50
2018-06-21T08:19:51.266Z,3.97
2018-06-21T08:22:19.389Z,3.30
2018-06-21T08:24:47.536Z,2.97
2018-06-21T08:27:15.866Z,2.77
2018-06-21T08:29:43.994Z,3.87
2018-06-21T08:32:12.165Z,2.50
2018-06-21T08:34:40.458Z,2.90
2018-06-21T08:37:08.570Z,2.50
2018-06-21T08:39:36.897Z,2.07
2018-06-21T08:42:05.042Z,1.97
2018-06-21T08:44:33.710Z,1.80
2018-06-21T08:47:01.862Z,1.97
2018-06-21T08:49:30.014Z,2.33
2018-06-21T08:51:58.517Z,2.10
2018-06-21T08:54:26.825Z,2.00
2018-06-21T08:56:55.287Z,1.80
2018-06-21T08:59:23.434Z,2.40
2018-06-21T09:01:51.893Z,2.90
2018-06-21T09:04:20.033Z,3.13
2018-06-21T09:06:48.154Z,2.90
2018-06-21T09:09:16.301Z,2.50
2018-06-21T09:11:44.425Z,1.83
2018-06-21T09:14:12.566Z,2.33
2018-06-21T09:16:40.910Z,2.53
2018-06-21T09:19:09.384Z,2.83
2018-06-21T09:21:37.709Z,2.50
2018-06-21T09:24:06.230Z,1.83
2018-06-21T09:26:34.697Z,2.40
2018-06-21T09:29:02.845Z,2.60
2018-06-21T09:31:30.973Z,1.80
2018-06-21T09:33:59.105Z,2.13
2018-06-21T09:36:29.729Z,2.20
2018-06-21T09:39:03.645Z,2.17
2018-06-21T09:41:37.217Z,1.77
2018-06-21T09:44:41.950Z,1.57
2018-06-21T09:47:15.737Z,2.20
2018-06-21T09:49:44.222Z,2.23
2018-06-21T09:52:12.352Z,2.00
2018-06-21T09:54:40.817Z,1.73
2018-06-21T09:57:09.273Z,2.00
2018-06-21T09:59:37.427Z,2.50
2018-06-21T10:02:06.098Z,2.60
2018-06-21T10:04:34.242Z,2.60
2018-06-21T10:07:02.377Z,2.57
2018-06-21T10:09:30.927Z,1.70
2018-06-21T10:11:59.377Z,1.50
2018-06-21T10:14:27.576Z,1.73
2018-06-21T10:16:55.697Z,1.30
2018-06-21T10:19:24.186Z,1.37
2018-06-21T10:21:52.361Z,1.80
2018-06-21T10:24:20.475Z,2.50
2018-06-21T10:26:48.634Z,1.87
2018-06-21T10:29:17.270Z,2.50
2018-06-21T10:31:45.998Z,2.60
2018-06-21T10:34:14.145Z,2.20
2018-06-21T10:36:42.294Z,2.57
2018-06-21T10:39:11.880Z,2.10
2018-06-21T10:41:40.473Z,2.37
2018-06-21T10:44:08.956Z,2.80
2018-06-21T10:46:37.233Z,2.47
2018-06-21T10:49:05.405Z,2.20
2018-06-21T10:51:34.094Z,2.27
2018-06-21T10:54:02.662Z,2.30
2018-06-21T10:56:31.137Z,2.30
2018-06-21T10:58:59.309Z,2.90
2018-06-21T11:01:27.789Z,2.63
2018-06-21T11:03:56.329Z,2.17
2018-06-21T11:06:25.189Z,2.00
2018-06-21T11:08:53.662Z,1.40
2018-06-21T11:11:22.439Z,1.10
2018-06-21T11:13:50.706Z,1.00
2018-06-21T11:16:18.840Z,1.23
2018-06-21T11:18:47.041Z,1.30
2018-06-21T11:21:15.542Z,1.20
2018-06-21T11:23:44.001Z,1.50
2018-06-21T11:26:12.520Z,1.20
2018-06-21T11:28:40.985Z,1.00
2018-06-21T11:31:09.118Z,1.30
2018-06-21T11:33:37.249Z,1.27
2018-06-21T11:36:05.546Z,1.10
2018-06-21T11:38:34.006Z,1.77
2018-06-21T11:41:02.481Z,1.20
2018-06-21T11:43:30.938Z,2.30
2018-06-21T11:45:59.421Z,2.03
2018-06-21T11:48:27.581Z,1.27
2018-06-21T11:50:55.793Z,1.10
2018-06-21T11:53:24.477Z,1.30
2018-06-21T11:55:52.620Z,1.07
2018-06-21T11:58:20.770Z,1.10
2018-06-21T12:00:49.232Z,0.90
2018-06-21T12:03:17.497Z,1.37
2018-06-21T12:05:46.446Z,1.23
2018-06-21T12:08:14.598Z,1.13
2018-06-21T12:10:43.085Z,1.50
2018-06-21T12:13:11.765Z,1.50
2018-06-21T12:15:39.946Z,0.97
2018-06-21T12:18:08.417Z,1.40
2018-06-21T12:20:36.538Z,1.00
2018-06-21T12:23:04.718Z,1.40
2018-06-21T12:25:33.450Z,1.30
2018-06-21T12:28:01.934Z,1.27
2018-06-21T12:30:30.077Z,1.37
2018-06-21T12:32:58.614Z,1.30
2018-06-21T12:35:27.166Z,1.50
2018-06-21T12:37:56.638Z,0.93
2018-06-21T12:40:25.330Z,1.10
2018-06-21T12:42:53.814Z,0.97
2018-06-21T12:45:22.018Z,1.00
2018-06-21T12:47:50.338Z,0.50
2018-06-21T12:50:19.053Z,0.73
2018-06-21T12:52:47.397Z,0.40
2018-06-21T12:55:15.850Z,0.60
2018-06-21T12:57:44.209Z,1.00
2018-06-21T13:00:12.641Z,0.50
2018-06-21T13:02:40.866Z,0.60
2018-06-21T13:05:09.007Z,0.90
2018-06-21T13:07:37.144Z,0.97
2018-06-21T13:10:16.762Z,0.93
2018-06-21T13:13:01.734Z,0.67
2018-06-21T13:15:29.885Z,0.83
2018-06-21T13:17:58.590Z,1.33
2018-06-21T13:20:27.077Z,1.13
2018-06-21T13:22:55.558Z,0.87
2018-06-21T13:25:23.714Z,1.20
2018-06-21T13:27:51.856Z,0.90
2018-06-21T13:30:20.730Z,0.70
2018-06-21T13:32:48.902Z,1.30
2018-06-21T13:35:17.369Z,0.83
2018-06-21T13:37:45.505Z,1.07
2018-06-21T13:40:13.953Z,2.00
2018-06-21T13:42:42.807Z,1.00
2018-06-21T13:45:11.254Z,1.20
2018-06-21T13:47:39.733Z,1.23
2018-06-21T13:50:08.442Z,1.70
2018-06-21T13:52:36.594Z,1.90
2018-06-21T13:55:05.047Z,1.30
2018-06-21T13:57:33.206Z,1.23
2018-06-21T14:00:01.319Z,0.90
2018-06-21T14:02:29.466Z,1.10
2018-06-21T14:04:57.929Z,1.07
2018-06-21T14:07:26.628Z,1.07
2018-06-21T14:09:54.937Z,1.07
2018-06-21T14:12:23.432Z,0.97
2018-06-21T14:14:51.917Z,1.00
2018-06-21T14:17:20.570Z,1.23
2018-06-21T14:19:49.030Z,1.37
2018-06-21T14:22:17.177Z,1.07
2018-06-21T14:24:45.337Z,1.67
2018-06-21T14:27:13.487Z,1.07
2018-06-21T14:29:41.646Z,1.10
2018-06-21T14:32:09.789Z,0.90
2018-06-21T14:34:38.241Z,0.93
2018-06-21T14:37:06.438Z,1.10
2018-06-21T14:39:34.902Z,0.77
2018-06-21T14:42:03.079Z,1.00
2018-06-21T14:44:31.210Z,0.80
2018-06-21T14:46:59.698Z,0.83
2018-06-21T14:49:27.854Z,0.90
2018-06-21T14:51:56.329Z,0.80
2018-06-21T14:54:24.488Z,1.00
2018-06-21T14:56:53.350Z,0.83
2018-06-21T14:59:23.222Z,1.30
2018-06-21T15:01:53.494Z,1.57
2018-06-21T15:04:24.301Z,1.30
2018-06-21T15:06:52.775Z,1.17
2018-06-21T15:09:21.266Z,0.70
2018-06-21T15:11:49.730Z,0.90
2018-06-21T15:14:18.066Z,0.70
2018-06-21T15:16:46.214Z,1.20
2018-06-21T15:19:14.706Z,0.70
2018-06-21T15:21:43.070Z,0.67
2018-06-21T15:24:11.214Z,0.63
2018-06-21T15:26:39.682Z,0.60
2018-06-21T15:29:08.218Z,1.07
2018-06-21T15:31:36.497Z,1.23
2018-06-21T15:34:04.645Z,0.80
2018-06-21T15:36:33.351Z,0.60
2018-06-21T15:39:07.067Z,0.80
2018-06-21T15:41:35.558Z,1.00
2018-06-21T15:44:03.952Z,0.80
2018-06-21T15:46:32.473Z,1.00
2018-06-21T15:49:00.947Z,1.10
2018-06-21T15:51:29.422Z,1.10
2018-06-21T15:53:57.765Z,1.10
2018-06-21T15:56:26.221Z,1.00
2018-06-21T15:58:54.402Z,0.70
2018-06-21T16:01:22.870Z,0.67
2018-06-21T16:03:51.530Z,0.83
2018-06-21T16:06:19.677Z,0.77
2018-06-21T16:08:48.318Z,1.10
2018-06-21T16:11:16.633Z,1.10
2018-06-21T16:13:45.107Z,0.60
2018-06-21T16:16:13.582Z,0.80
2018-06-21T16:18:41.754Z,0.80
2018-06-21T16:21:09.918Z,0.73
2018-06-21T16:23:38.756Z,0.80
2018-06-21T16:26:07.250Z,1.00
2018-06-21T16:28:35.768Z,1.00
2018-06-21T16:31:03.982Z,0.67
2018-06-21T16:33:32.192Z,0.70
2018-06-21T16:36:00.498Z,0.87
2018-06-21T16:38:28.642Z,0.73
2018-06-21T16:40:57.202Z,1.03
2018-06-21T16:43:25.613Z,0.87
2018-06-21T16:45:54.070Z,0.90
2018-06-21T16:48:22.567Z,0.80
2018-06-21T16:50:50.703Z,0.80
2018-06-21T16:53:19.026Z,0.90
2018-06-21T16:55:47.498Z,0.70
2018-06-21T16:58:15.845Z,0.67
2018-06-21T17:00:44.085Z,1.33
2018-06-21T17:03:12.607Z,0.80
2018-06-21T17:05:40.735Z,0.80
2018-06-21T17:08:09.406Z,1.00
2018-06-21T17:10:37.866Z,1.30
2018-06-21T17:13:05.994Z,0.97
2018-06-21T17:15:34.538Z,0.87
2018-06-21T17:18:02.666Z,0.90
2018-06-21T17:20:31.169Z,1.10
2018-06-21T17:22:59.630Z,1.90
2018-06-21T17:25:27.739Z,0.90
2018-06-21T17:27:56.197Z,2.40
2018-06-21T17:30:24.772Z,1.00
2018-06-21T17:32:53.321Z,1.00
2018-06-21T17:35:21.842Z,1.00
2018-06-21T17:37:49.973Z,1.00
2018-06-21T17:40:18.295Z,0.97
2018-06-21T17:42:46.401Z,0.73
2018-06-21T17:45:14.951Z,0.83
2018-06-21T17:47:43.266Z,1.10
2018-06-21T17:50:11.701Z,0.90
2018-06-21T17:52:39.833Z,0.90
2018-06-21T17:55:07.987Z,0.83
2018-06-21T17:57:36.436Z,0.90
2018-06-21T18:00:05.150Z,0.80
2018-06-21T18:02:33.601Z,1.90
2018-06-21T18:05:01.729Z,0.97
2018-06-21T18:07:29.934Z,1.40
2018-06-21T18:09:58.609Z,0.80
2018-06-21T18:12:27.039Z,1.10
2018-06-21T18:14:55.357Z,1.40
2018-06-21T18:17:23.929Z,0.77
2018-06-21T18:19:52.621Z,1.43
2018-06-21T18:22:21.101Z,1.30
2018-06-21T18:24:49.648Z,0.73
2018-06-21T18:27:17.785Z,0.90
2018-06-21T18:29:46.240Z,0.80
2018-06-21T18:32:14.685Z,0.87
2018-06-21T18:34:43.141Z,1.40
2018-06-21T18:37:13.186Z,0.90
2018-06-21T18:39:41.653Z,1.23
2018-06-21T18:42:10.102Z,0.93
2018-06-21T18:44:38.617Z,1.30
2018-06-21T18:47:07.181Z,0.90
2018-06-21T18:49:35.905Z,1.00
2018-06-21T18:52:04.414Z,1.03
2018-06-21T18:54:32.571Z,1.13
2018-06-21T18:57:00.750Z,1.30
2018-06-21T18:59:29.065Z,1.00
2018-06-21T19:01:57.293Z,0.80
2018-06-21T19:04:25.446Z,1.03
2018-06-21T19:06:59.230Z,0.97
2018-06-21T19:09:32.709Z,1.17
2018-06-21T19:12:04.135Z,1.03
2018-06-21T19:14:32.444Z,1.20
2018-06-21T19:17:00.562Z,0.83
2018-06-21T19:19:28.753Z,1.40
2018-06-21T19:21:57.053Z,1.47
2018-06-21T19:24:25.365Z,1.50
2018-06-21T19:26:53.837Z,1.00
2018-06-21T19:29:22.305Z,1.10
2018-06-21T19:31:50.418Z,1.13
2018-06-21T19:34:18.897Z,1.37
2018-06-21T19:36:47.609Z,1.07
2018-06-21T19:39:16.286Z,1.10
2018-06-21T19:41:44.746Z,1.20
2018-06-21T19:44:12.850Z,1.10
2018-06-21T19:46:40.970Z,1.00
2018-06-21T19:49:09.288Z,0.97
2018-06-21T19:51:37.545Z,1.13
2018-06-21T19:54:06.214Z,1.40
2018-06-21T19:56:34.869Z,1.07
2018-06-21T19:59:03.558Z,1.40
2018-06-21T20:01:31.717Z,0.97
2018-06-21T20:03:59.849Z,1.27
2018-06-21T20:06:28.314Z,1.23
2018-06-21T20:08:56.427Z,1.03
2018-06-21T20:11:30.969Z,1.07
2018-06-21T20:13:59.622Z,1.30
2018-06-21T20:16:27.945Z,1.10
2018-06-21T20:18:56.393Z,1.40
2018-06-21T20:21:24.709Z,1.13
2018-06-21T20:23:52.861Z,1.17
2018-06-21T20:26:21.677Z,1.67
2018-06-21T20:28:49.782Z,1.27
2018-06-21T20:31:18.734Z,1.53
2018-06-21T20:33:47.681Z,1.53
2018-06-21T20:36:16.517Z,0.97
2018-06-21T20:38:44.968Z,1.83
2018-06-21T20:41:13.217Z,1.80
2018-06-21T20:43:41.367Z,1.70
2018-06-21T20:46:09.502Z,1.50
2018-06-21T20:48:37.649Z,1.83
2018-06-21T20:51:06.257Z,2.20
2018-06-21T20:53:34.394Z,1.40
2018-06-21T20:56:02.846Z,1.50
2018-06-21T20:58:31.193Z,2.00
2018-06-21T21:00:59.560Z,1.70
2018-06-21T21:03:28.013Z,1.70
2018-06-21T21:05:56.457Z,1.60
2018-06-21T21:08:24.851Z,2.00
2018-06-21T21:10:52.975Z,1.40
2018-06-21T21:13:21.130Z,1.40
2018-06-21T21:15:49.597Z,1.43
2018-06-21T21:18:18.135Z,1.00
2018-06-21T21:20:46.793Z,1.70
2018-06-21T21:23:15.051Z,1.53
2018-06-21T21:25:43.681Z,1.90
2018-06-21T21:28:11.816Z,1.50
2018-06-21T21:30:40.277Z,1.70
2018-06-21T21:33:08.396Z,1.20
2018-06-21T21:35:36.742Z,1.70
2018-06-21T21:38:05.440Z,1.33
2018-06-21T21:40:33.549Z,1.97
2018-06-21T21:43:01.850Z,1.80
2018-06-21T21:45:30.289Z,1.17
2018-06-21T21:47:58.397Z,2.00
2018-06-21T21:50:26.802Z,1.87
2018-06-21T21:52:55.099Z,1.40
2018-06-21T21:55:23.201Z,1.30
2018-06-21T21:57:51.677Z,1.80
2018-06-21T22:00:55.549Z,1.87
2018-06-21T22:03:23.896Z,1.70
2018-06-21T22:05:52.358Z,1.83
2018-06-21T22:08:20.729Z,2.10
2018-06-21T22:10:49.645Z,1.53
2018-06-21T22:13:18.746Z,0.97
2018-06-21T22:15:46.995Z,1.20
2018-06-21T22:18:15.643Z,1.60
2018-06-21T22:20:44.106Z,1.57
2018-06-21T22:23:12.254Z,1.50
2018-06-21T22:25:40.578Z,1.30
2018-06-21T22:28:08.742Z,1.80
2018-06-21T22:30:37.221Z,1.80
2018-06-21T22:33:05.731Z,1.70
2018-06-21T22:35:33.836Z,1.60
2018-06-21T22:38:02.301Z,1.73
2018-06-21T22:40:30.402Z,1.07
2018-06-21T22:42:58.521Z,1.97
2018-06-21T22:45:27.205Z,1.53
2018-06-21T22:47:55.994Z,1.53
2018-06-21T22:50:24.100Z,1.30
2018-06-21T22:52:52.574Z,1.23
2018-06-21T22:55:20.706Z,1.77
2018-06-21T22:57:48.818Z,1.47
2018-06-21T23:00:17.601Z,1.30
2018-06-21T23:02:46.389Z,1.40
2018-06-21T23:05:14.725Z,1.43
2018-06-21T23:07:42.834Z,2.30
2018-06-21T23:10:11.466Z,1.70
2018-06-21T23:12:39.564Z,1.40
2018-06-21T23:15:07.686Z,1.40
2018-06-21T23:17:35.812Z,1.87
2018-06-21T23:20:04.385Z,2.03
2018-06-21T23:22:32.830Z,1.53
2018-06-21T23:25:01.526Z,2.10
2018-06-21T23:27:29.762Z,1.70
2018-06-21T23:29:57.858Z,1.53
2018-06-21T23:32:25.982Z,2.20
2018-06-21T23:34:54.098Z,2.50
2018-06-21T23:37:22.225Z,1.97
2018-06-21T23:39:50.342Z,2.63
2018-06-21T23:42:18.490Z,2.20
2018-06-21T23:44:46.589Z,2.43
2018-06-21T23:47:14.705Z,2.20
2018-06-21T23:49:42.809Z,2.20
2018-06-21T23:52:10.953Z,1.57
2018-06-21T23:54:39.394Z,2.70
2018-06-21T23:57:07.745Z,2.17
2018-06-21T23:59:36.401Z,2.30
